GLRB

Details ICAO GLRB (ROB)
Name MONROVIA ROBERTS INTL
Region Liberia
Timezone Africa/Monrovia (UTC+0.0)
Plans Departing 78
Arriving 76
Stats Elevation 31 ft / 9 m (AMSL)
Location 6.233790° -10.362312°
Runways 1
Magnetic Variation 6.656° W
Sunrise 2018-05-20 06:26:44 UTC / 2018-05-20 06:26:44 Local
Sunset 2018-05-20 18:52:04 UTC / 2018-05-20 18:52:04 Local
Advertisement - Login to hide

Runways

ID Width Length Bearing (true) Bearing (mag) Surface Threshold Offset Overrun Length
04 150 ft / 46 m 11,029 ft / 3,362 m 30.94° 37.60° Asphalt 0 ft / 0 m 0 ft / 0 m
22 150 ft / 46 m 11,029 ft / 3,362 m 210.94° 217.60° Asphalt 1,200 ft / 366 m 0 ft / 0 m

Map

Weather


0- 5 10 15 20 25 30 35+ Temperature / ° C

Clouds and Precipitation
Forecast for 2018-05-20 12:00 UTC. Updated 3 hours ago

Ground ~20,000 ft ~40,000 ft Winds

METAR

GLRB 201430Z 24010KT 9999 BKN018 31/25 Q1010 NOSIG

TAF

TAF GLRB 201000Z 2012/2018 20010KT 9999 BKN020 BECMG 2016/2018 20012KT SCT024 FEW027CB TEMPO 2022/2102 00000KT 9000 SCT024 FEW024CB

Frequencies

Ground 121.90 MHz GND
Tower 121.90 MHz ROBERTS TWR
Approach 118.30 MHz ROBERTS APP
Tower 118.30 MHz ROBERTS TWR
Approach 124.50 MHz ROBERTS APP
Warning: Do not use this data for real-world aviation or navigation. No guarantee of current accuracy is given.